createdAt,value
2018-08-03T00:01:45.760Z,86.30
2018-08-03T00:04:14.307Z,86.40
2018-08-03T00:06:42.852Z,86.50
2018-08-03T00:09:11.328Z,87.30
2018-08-03T00:11:39.904Z,87.10
2018-08-03T00:14:09.155Z,87.00
2018-08-03T00:16:37.592Z,87.00
2018-08-03T00:19:06.117Z,87.50
2018-08-03T00:21:34.568Z,87.00
2018-08-03T00:24:03.044Z,87.30
2018-08-03T00:26:31.516Z,87.30
2018-08-03T00:29:00.036Z,87.10
2018-08-03T00:31:28.516Z,87.20
2018-08-03T00:33:56.987Z,87.50
2018-08-03T00:36:25.482Z,86.70
2018-08-03T00:38:53.959Z,85.90
2018-08-03T00:41:22.445Z,85.20
2018-08-03T00:43:51.024Z,85.50
2018-08-03T00:46:19.664Z,86.10
2018-08-03T00:48:48.102Z,88.00
2018-08-03T00:51:16.626Z,88.10
2018-08-03T00:53:45.153Z,88.50
2018-08-03T00:56:13.603Z,88.40
2018-08-03T00:58:42.091Z,88.20
2018-08-03T01:01:11.124Z,88.10
2018-08-03T01:03:39.633Z,88.70
2018-08-03T01:06:08.100Z,88.10
2018-08-03T01:08:37.140Z,88.20
2018-08-03T01:11:05.567Z,87.90
2018-08-03T01:13:34.088Z,87.90
2018-08-03T01:16:02.523Z,87.70
2018-08-03T01:18:30.987Z,87.70
2018-08-03T01:20:59.423Z,87.60
2018-08-03T01:23:27.884Z,87.70
2018-08-03T01:28:24.687Z,89.00
2018-08-03T01:30:53.190Z,89.20
2018-08-03T01:33:22.449Z,89.60
2018-08-03T01:35:51.611Z,89.80
2018-08-03T01:38:20.086Z,89.60
2018-08-03T01:40:48.684Z,89.70
2018-08-03T01:43:17.152Z,89.70
2018-08-03T01:45:45.594Z,90.00
2018-08-03T01:48:14.148Z,89.90
2018-08-03T01:50:42.697Z,90.10
2018-08-03T01:53:11.240Z,90.20
2018-08-03T01:55:40.269Z,90.20
2018-08-03T01:58:08.803Z,89.70
2018-08-03T02:00:37.247Z,89.40
2018-08-03T02:03:05.943Z,89.40
2018-08-03T02:05:34.424Z,89.30
2018-08-03T02:08:02.899Z,89.00
2018-08-03T02:10:31.318Z,88.10
2018-08-03T02:12:59.943Z,87.50
2018-08-03T02:15:28.420Z,87.60
2018-08-03T02:17:57.584Z,86.80
2018-08-03T02:20:26.086Z,86.00
2018-08-03T02:22:54.559Z,86.30
2018-08-03T02:25:23.128Z,86.30
2018-08-03T02:27:51.565Z,86.90
2018-08-03T02:30:20.065Z,86.20
2018-08-03T02:35:16.653Z,84.70
2018-08-03T02:37:45.229Z,84.70
2018-08-03T02:40:13.856Z,84.00
2018-08-03T02:42:42.376Z,85.60
2018-08-03T02:45:10.996Z,86.30
2018-08-03T02:47:39.444Z,86.80
2018-08-03T02:52:36.217Z,85.10
2018-08-03T02:55:04.997Z,85.50
2018-08-03T02:57:33.434Z,84.60
2018-08-03T03:00:01.875Z,85.70
2018-08-03T03:02:30.343Z,86.90
2018-08-03T03:04:58.823Z,87.40
2018-08-03T03:07:27.933Z,87.40
2018-08-03T03:09:56.349Z,87.70
2018-08-03T03:12:24.848Z,87.70
2018-08-03T03:14:53.403Z,88.30
2018-08-03T03:17:23.156Z,90.30
2018-08-03T03:19:51.593Z,91.40
2018-08-03T03:22:20.092Z,90.90
2018-08-03T03:27:16.791Z,91.00
2018-08-03T03:29:45.317Z,91.00
2018-08-03T03:32:13.741Z,90.50
2018-08-03T03:34:42.293Z,91.00
2018-08-03T03:37:12.137Z,90.80
2018-08-03T03:39:40.699Z,90.50
2018-08-03T03:42:09.240Z,90.80
2018-08-03T03:44:37.744Z,90.70
2018-08-03T03:47:06.353Z,91.00
2018-08-03T03:49:34.820Z,92.00
2018-08-03T03:52:03.313Z,90.90
2018-08-03T03:54:31.827Z,91.10
2018-08-03T03:57:01.072Z,91.00
2018-08-03T03:59:29.568Z,91.10
2018-08-03T04:01:58.134Z,90.90
2018-08-03T04:04:26.645Z,90.30
2018-08-03T04:06:55.145Z,90.40
2018-08-03T04:09:23.663Z,90.60
2018-08-03T04:11:52.195Z,90.90
2018-08-03T04:14:21.572Z,91.10
2018-08-03T04:16:50.061Z,90.70
2018-08-03T04:19:18.564Z,89.90
2018-08-03T04:21:47.105Z,89.50
2018-08-03T04:24:15.739Z,89.90
2018-08-03T04:26:44.279Z,89.80
2018-08-03T04:29:12.771Z,89.80
2018-08-03T04:31:41.223Z,89.20
2018-08-03T04:34:09.696Z,88.90
2018-08-03T04:36:38.193Z,88.50
2018-08-03T04:39:07.635Z,88.30
2018-08-03T04:41:36.130Z,87.40
2018-08-03T04:44:04.645Z,88.00
2018-08-03T04:46:33.107Z,87.30
2018-08-03T04:49:02.246Z,86.80
2018-08-03T04:51:30.794Z,85.30
2018-08-03T04:53:59.243Z,83.80
2018-08-03T04:56:27.725Z,83.50
2018-08-03T04:58:56.240Z,82.90
2018-08-03T05:01:24.702Z,82.50
2018-08-03T05:03:53.241Z,81.30
2018-08-03T05:06:21.760Z,81.20
2018-08-03T05:08:50.279Z,79.80
2018-08-03T05:11:18.864Z,77.90
2018-08-03T05:13:47.375Z,78.00
2018-08-03T05:16:16.431Z,77.20
2018-08-03T05:18:44.876Z,77.30
2018-08-03T05:21:13.297Z,77.00
2018-08-03T05:23:41.860Z,76.00
2018-08-03T05:26:10.324Z,72.80
2018-08-03T05:28:38.847Z,66.10
2018-08-03T05:31:07.752Z,60.50
2018-08-03T05:33:36.248Z,57.80
2018-08-03T05:36:04.892Z,56.10
2018-08-03T05:38:33.235Z,55.10
2018-08-03T05:41:01.723Z,54.30
2018-08-03T05:43:30.216Z,55.50
2018-08-03T05:45:59.465Z,56.50
2018-08-03T05:48:27.952Z,56.50
2018-08-03T05:50:56.453Z,54.70
2018-08-03T05:53:24.916Z,53.10
2018-08-03T05:55:53.420Z,51.80
2018-08-03T05:58:21.904Z,50.40
2018-08-03T06:00:50.560Z,48.10
2018-08-03T06:03:19.703Z,45.70
2018-08-03T06:05:48.335Z,43.20
2018-08-03T06:08:16.760Z,41.50
2018-08-03T06:10:45.340Z,39.90
2018-08-03T06:13:13.820Z,39.30
2018-08-03T06:15:42.270Z,37.80
2018-08-03T06:18:10.704Z,36.20
2018-08-03T06:20:39.151Z,35.80
2018-08-03T06:23:07.732Z,33.30
2018-08-03T06:25:36.205Z,32.10
2018-08-03T06:28:04.856Z,31.70
2018-08-03T06:30:33.433Z,32.30
2018-08-03T06:33:01.855Z,31.70
2018-08-03T06:35:30.566Z,31.00
2018-08-03T06:37:59.112Z,30.70
2018-08-03T06:40:27.649Z,28.90
2018-08-03T06:42:56.083Z,29.70
2018-08-03T06:45:24.593Z,29.80
2018-08-03T06:47:53.055Z,29.60
2018-08-03T06:50:21.612Z,30.20
2018-08-03T06:52:50.108Z,31.00
2018-08-03T06:55:18.719Z,29.20
2018-08-03T06:57:47.167Z,29.70
2018-08-03T07:00:16.761Z,28.80
2018-08-03T07:02:45.686Z,29.10
2018-08-03T07:05:14.116Z,28.20
2018-08-03T07:07:42.604Z,28.90
2018-08-03T07:10:11.178Z,29.90
2018-08-03T07:12:39.927Z,29.60
2018-08-03T07:15:08.576Z,30.10
2018-08-03T07:17:37.091Z,30.40
2018-08-03T07:20:05.814Z,32.20
2018-08-03T07:22:34.326Z,32.20
2018-08-03T07:25:02.900Z,32.50
2018-08-03T07:27:31.625Z,32.10
2018-08-03T07:30:00.280Z,31.50
2018-08-03T07:32:29.610Z,32.10
2018-08-03T07:34:58.172Z,32.70
2018-08-03T07:37:26.733Z,32.40
2018-08-03T07:39:55.290Z,30.60
2018-08-03T07:42:24.521Z,28.80
2018-08-03T07:44:53.185Z,30.60
2018-08-03T07:47:22.054Z,30.50
2018-08-03T07:49:50.667Z,30.20
2018-08-03T07:52:19.338Z,29.10
2018-08-03T07:54:48.003Z,31.20
2018-08-03T07:57:16.724Z,29.70
2018-08-03T07:59:45.469Z,29.90
2018-08-03T08:02:14.100Z,29.70
2018-08-03T08:04:42.668Z,29.30
2018-08-03T08:07:11.202Z,29.30
2018-08-03T08:09:39.700Z,29.60
2018-08-03T08:12:08.160Z,29.00
2018-08-03T08:14:36.662Z,29.20
2018-08-03T08:17:05.306Z,30.10
2018-08-03T08:19:33.780Z,28.70
2018-08-03T08:22:02.310Z,27.70
2018-08-03T08:24:30.848Z,27.30
2018-08-03T08:27:00.539Z,28.60
2018-08-03T08:29:28.998Z,27.90
2018-08-03T08:31:57.674Z,28.70
2018-08-03T08:34:26.213Z,28.80
2018-08-03T08:36:54.759Z,27.80
2018-08-03T08:39:23.147Z,29.40
2018-08-03T08:41:51.755Z,29.00
2018-08-03T08:44:20.200Z,27.90
2018-08-03T08:46:48.748Z,27.00
2018-08-03T08:49:17.258Z,27.60
2018-08-03T08:51:45.744Z,28.70
2018-08-03T08:54:14.314Z,27.80
2018-08-03T08:56:42.900Z,29.10
2018-08-03T08:59:11.423Z,26.30
2018-08-03T09:04:08.089Z,26.80
2018-08-03T09:06:36.584Z,27.80
2018-08-03T09:11:27.791Z,25.20
2018-08-03T09:13:56.272Z,23.40
2018-08-03T09:16:25.081Z,23.60
2018-08-03T09:18:53.838Z,24.60
2018-08-03T09:21:22.303Z,27.30
2018-08-03T09:23:50.974Z,25.70
2018-08-03T09:26:19.504Z,23.90
2018-08-03T09:28:48.665Z,24.10
2018-08-03T09:31:17.292Z,23.50
2018-08-03T09:33:45.884Z,21.10
2018-08-03T09:36:14.429Z,22.10
2018-08-03T09:38:42.915Z,22.80
2018-08-03T09:41:11.411Z,22.30
2018-08-03T09:43:40.836Z,21.30
2018-08-03T09:46:09.343Z,23.00
2018-08-03T09:48:37.839Z,22.70
2018-08-03T09:51:06.575Z,22.50
2018-08-03T09:53:35.063Z,23.20
2018-08-03T09:56:03.574Z,22.50
2018-08-03T09:58:32.048Z,26.10
2018-08-03T10:01:12.824Z,26.40
2018-08-03T10:03:42.536Z,27.20
2018-08-03T10:06:11.873Z,27.30
2018-08-03T10:08:40.411Z,27.00
2018-08-03T10:11:09.324Z,26.60
2018-08-03T10:13:37.899Z,27.00
2018-08-03T10:16:06.501Z,26.30
2018-08-03T10:18:34.933Z,25.10
2018-08-03T10:21:03.424Z,26.40
2018-08-03T10:23:31.981Z,26.00
2018-08-03T10:26:00.546Z,26.30
2018-08-03T10:28:29.067Z,25.50
2018-08-03T10:30:57.642Z,24.70
2018-08-03T10:33:26.363Z,23.60
2018-08-03T10:35:54.853Z,24.70
2018-08-03T10:38:23.338Z,23.60
2018-08-03T10:40:51.932Z,24.10
2018-08-03T10:43:20.483Z,24.90
2018-08-03T10:45:49.751Z,25.50
2018-08-03T10:48:18.208Z,23.30
2018-08-03T10:50:46.743Z,23.30
2018-08-03T10:53:15.334Z,24.80
2018-08-03T10:55:43.825Z,22.10
2018-08-03T10:58:12.412Z,21.80
2018-08-03T11:00:40.929Z,21.00
2018-08-03T11:03:09.413Z,22.70
2018-08-03T11:05:37.888Z,22.00
2018-08-03T11:08:06.393Z,20.30
2018-08-03T11:10:34.891Z,20.50
2018-08-03T11:13:03.429Z,20.00
2018-08-03T11:15:31.982Z,19.40
2018-08-03T11:18:00.463Z,19.60
2018-08-03T11:20:29.094Z,19.20
2018-08-03T11:22:57.713Z,19.80
2018-08-03T11:25:26.234Z,21.10
2018-08-03T11:27:54.796Z,20.00
2018-08-03T11:30:23.277Z,21.10
2018-08-03T11:32:51.687Z,20.70
2018-08-03T11:35:20.206Z,20.10
2018-08-03T11:37:48.734Z,20.00
2018-08-03T11:40:17.235Z,20.40
2018-08-03T11:42:46.226Z,21.30
2018-08-03T11:45:14.819Z,19.60
2018-08-03T11:47:43.337Z,19.30
2018-08-03T11:50:12.632Z,18.80
2018-08-03T11:52:41.069Z,18.10
2018-08-03T11:55:09.619Z,17.20
2018-08-03T11:57:38.119Z,19.30
2018-08-03T12:02:34.946Z,21.30
2018-08-03T12:05:03.493Z,21.90
2018-08-03T12:07:31.998Z,20.60
2018-08-03T12:10:00.599Z,20.70
2018-08-03T12:12:29.088Z,21.90
2018-08-03T12:14:57.550Z,20.90
2018-08-03T12:17:26.667Z,20.40
2018-08-03T12:19:55.194Z,21.30
2018-08-03T12:22:23.707Z,20.90
2018-08-03T12:24:52.263Z,20.00
2018-08-03T12:27:20.784Z,20.60
2018-08-03T12:29:49.367Z,20.20
2018-08-03T12:32:17.807Z,21.60
2018-08-03T12:34:46.334Z,22.00
2018-08-03T12:37:14.775Z,23.30
2018-08-03T12:39:43.345Z,20.90
2018-08-03T12:42:11.807Z,21.10
2018-08-03T12:44:40.459Z,19.60
2018-08-03T12:47:08.932Z,18.10
2018-08-03T12:49:37.572Z,19.60
2018-08-03T12:52:06.104Z,18.50
2018-08-03T12:54:35.167Z,18.50
2018-08-03T12:57:03.720Z,18.30
2018-08-03T12:59:32.264Z,17.40
2018-08-03T13:02:00.700Z,18.70
2018-08-03T13:04:29.180Z,21.60
2018-08-03T13:06:57.821Z,23.10
2018-08-03T13:09:26.353Z,23.10
2018-08-03T13:11:54.917Z,20.20
2018-08-03T13:14:23.423Z,19.30
2018-08-03T13:16:51.945Z,19.20
2018-08-03T13:19:20.389Z,18.50
2018-08-03T13:21:48.886Z,17.60
2018-08-03T13:26:45.480Z,19.00
2018-08-03T13:29:13.982Z,20.00
2018-08-03T13:31:42.523Z,20.40
2018-08-03T13:34:10.998Z,21.50
2018-08-03T13:36:39.605Z,19.70
2018-08-03T13:39:08.854Z,19.30
2018-08-03T13:41:38.161Z,19.10
2018-08-03T13:44:06.747Z,19.00
2018-08-03T13:46:35.312Z,18.50
2018-08-03T13:49:03.809Z,18.10
2018-08-03T13:51:32.383Z,19.10
2018-08-03T13:54:00.907Z,19.00
2018-08-03T13:56:29.371Z,17.70
2018-08-03T13:58:57.840Z,17.70
2018-08-03T14:01:37.980Z,19.20
2018-08-03T14:04:07.258Z,18.80
2018-08-03T14:06:35.774Z,18.00
2018-08-03T14:09:04.943Z,17.60
2018-08-03T14:11:34.059Z,18.50
2018-08-03T14:14:02.580Z,16.90
2018-08-03T14:16:31.152Z,18.00
2018-08-03T14:18:59.656Z,17.70
2018-08-03T14:21:28.152Z,17.90
2018-08-03T14:23:56.796Z,16.40
2018-08-03T14:26:25.433Z,16.90
2018-08-03T14:28:54.022Z,17.70
2018-08-03T14:31:22.636Z,16.00
2018-08-03T14:33:51.075Z,16.80
2018-08-03T14:36:19.533Z,17.90
2018-08-03T14:38:48.022Z,16.00
2018-08-03T14:41:16.535Z,15.60
2018-08-03T14:43:44.997Z,15.10
2018-08-03T14:46:13.529Z,16.70
2018-08-03T14:48:42.023Z,17.10
2018-08-03T14:51:10.544Z,17.30
2018-08-03T14:53:39.100Z,15.90
2018-08-03T14:56:07.588Z,17.60
2018-08-03T14:58:36.737Z,17.80
2018-08-03T15:01:05.188Z,17.30
2018-08-03T15:03:33.693Z,17.20
2018-08-03T15:06:02.196Z,17.00
2018-08-03T15:08:30.773Z,17.40
2018-08-03T15:10:59.343Z,16.20
2018-08-03T15:13:27.851Z,16.20
2018-08-03T15:15:57.196Z,15.20
2018-08-03T15:18:25.719Z,15.20
2018-08-03T15:20:54.230Z,16.20
2018-08-03T15:23:22.747Z,15.50
2018-08-03T15:25:51.264Z,16.70
2018-08-03T15:28:19.702Z,15.30
2018-08-03T15:30:48.183Z,15.90
2018-08-03T15:33:16.720Z,15.20
2018-08-03T15:35:45.266Z,16.30
2018-08-03T15:38:13.769Z,15.60
2018-08-03T15:40:42.285Z,15.90
2018-08-03T15:43:10.781Z,15.00
2018-08-03T15:45:39.421Z,14.20
2018-08-03T15:48:08.018Z,14.40
2018-08-03T15:50:36.488Z,15.30
2018-08-03T15:53:05.106Z,15.90
2018-08-03T15:55:33.645Z,15.80
2018-08-03T15:58:02.175Z,14.90
2018-08-03T16:00:30.687Z,15.00
2018-08-03T16:02:59.299Z,16.20
2018-08-03T16:05:27.767Z,16.60
2018-08-03T16:07:56.276Z,16.90
2018-08-03T16:10:24.723Z,16.50
2018-08-03T16:12:53.244Z,17.00
2018-08-03T16:15:21.816Z,17.10
2018-08-03T16:17:50.384Z,16.40
2018-08-03T16:20:18.898Z,17.10
2018-08-03T16:22:47.383Z,16.80
2018-08-03T16:25:15.890Z,15.70
2018-08-03T16:27:44.385Z,17.80
2018-08-03T16:30:12.887Z,15.80
2018-08-03T16:32:41.407Z,17.30
2018-08-03T16:35:10.689Z,16.20
2018-08-03T16:37:39.207Z,16.50
2018-08-03T16:40:08.604Z,16.50
2018-08-03T16:42:37.155Z,16.80
2018-08-03T16:45:06.112Z,17.30
2018-08-03T16:47:34.764Z,17.30
2018-08-03T16:50:03.318Z,17.00
2018-08-03T16:52:31.808Z,18.00
2018-08-03T16:55:00.254Z,17.60
2018-08-03T16:57:28.726Z,17.60
2018-08-03T16:59:57.193Z,18.10
2018-08-03T17:02:25.687Z,18.20
2018-08-03T17:04:54.185Z,17.80
2018-08-03T17:07:22.737Z,18.30
2018-08-03T17:09:52.263Z,18.70
2018-08-03T17:12:20.749Z,18.90
2018-08-03T17:17:18.606Z,19.70
2018-08-03T17:19:47.166Z,19.60
2018-08-03T17:22:16.291Z,19.90
2018-08-03T17:24:44.851Z,20.30
2018-08-03T17:27:13.370Z,21.20
2018-08-03T17:29:41.837Z,21.40
2018-08-03T17:32:10.252Z,21.50
2018-08-03T17:34:38.739Z,22.30
2018-08-03T17:37:07.255Z,22.30
2018-08-03T17:39:35.820Z,22.70
2018-08-03T17:42:04.334Z,23.50
2018-08-03T17:44:32.880Z,23.20
2018-08-03T17:47:01.353Z,24.50
2018-08-03T17:49:29.852Z,24.80
2018-08-03T17:51:58.288Z,25.40
2018-08-03T17:54:26.817Z,26.20
2018-08-03T17:56:56.291Z,27.70
2018-08-03T17:59:24.790Z,28.00
2018-08-03T18:01:53.315Z,29.00
2018-08-03T18:04:21.849Z,29.40
2018-08-03T18:06:50.450Z,29.20
2018-08-03T18:09:18.975Z,29.60
2018-08-03T18:11:47.444Z,30.30
2018-08-03T18:14:15.941Z,31.70
2018-08-03T18:16:44.398Z,31.80
2018-08-03T18:19:12.912Z,32.50
2018-08-03T18:21:41.384Z,33.30
2018-08-03T18:24:09.888Z,34.00
2018-08-03T18:29:07.113Z,32.90
2018-08-03T18:31:35.626Z,33.40
2018-08-03T18:34:04.024Z,33.60
2018-08-03T18:36:32.494Z,33.20
2018-08-03T18:39:01.117Z,33.40
2018-08-03T18:41:29.517Z,33.40
2018-08-03T18:43:57.988Z,34.10
2018-08-03T18:46:26.463Z,34.70
2018-08-03T18:48:54.896Z,35.40
2018-08-03T18:51:23.424Z,36.10
2018-08-03T18:53:51.911Z,37.50
2018-08-03T18:56:20.364Z,38.00
2018-08-03T18:58:48.896Z,38.30
2018-08-03T19:01:17.381Z,39.50
2018-08-03T19:03:45.863Z,38.60
2018-08-03T19:06:14.301Z,38.90
2018-08-03T19:08:42.791Z,40.10
2018-08-03T19:11:11.258Z,39.40
2018-08-03T19:13:39.800Z,39.00
2018-08-03T19:16:08.333Z,39.50
2018-08-03T19:18:36.944Z,40.50
2018-08-03T19:21:05.382Z,39.80
2018-08-03T19:23:33.834Z,38.50
2018-08-03T19:26:02.467Z,40.60
2018-08-03T19:28:31.535Z,40.30
2018-08-03T19:31:00.104Z,40.70
2018-08-03T19:33:28.646Z,40.20
2018-08-03T19:35:57.238Z,42.40
2018-08-03T19:38:25.717Z,40.90
2018-08-03T19:40:54.309Z,41.30
2018-08-03T19:43:22.724Z,41.20
2018-08-03T19:45:51.237Z,42.80
2018-08-03T19:48:19.671Z,42.90
2018-08-03T19:50:48.184Z,44.80
2018-08-03T19:53:16.663Z,45.40
2018-08-03T19:55:45.190Z,45.80
2018-08-03T19:58:13.664Z,46.50
2018-08-03T20:00:42.609Z,46.60
2018-08-03T20:03:11.215Z,46.80
2018-08-03T20:05:39.756Z,48.00
2018-08-03T20:08:08.251Z,47.40
2018-08-03T20:10:36.954Z,48.70
2018-08-03T20:13:05.553Z,49.50
2018-08-03T20:15:34.099Z,48.50
2018-08-03T20:18:02.601Z,47.70
2018-08-03T20:20:31.216Z,47.10
2018-08-03T20:22:59.763Z,47.50
2018-08-03T20:25:34.100Z,47.70
2018-08-03T20:28:03.454Z,48.40
2018-08-03T20:30:32.081Z,48.70
2018-08-03T20:33:00.520Z,49.60
2018-08-03T20:35:29.050Z,50.00
2018-08-03T20:37:57.548Z,50.90
2018-08-03T20:40:26.051Z,50.50
2018-08-03T20:42:54.548Z,51.60
2018-08-03T20:45:23.075Z,52.20
2018-08-03T20:47:51.527Z,51.20
2018-08-03T20:50:20.145Z,50.90
2018-08-03T20:52:48.564Z,52.70
2018-08-03T20:55:18.414Z,51.80
2018-08-03T20:57:46.964Z,52.20
2018-08-03T21:00:15.457Z,51.70
2018-08-03T21:02:43.924Z,52.30
2018-08-03T21:05:12.419Z,52.30
2018-08-03T21:07:40.874Z,53.30
2018-08-03T21:10:09.377Z,53.50
2018-08-03T21:12:37.880Z,53.90
2018-08-03T21:15:07.856Z,54.70
2018-08-03T21:17:36.296Z,53.10
2018-08-03T21:20:05.277Z,53.60
2018-08-03T21:25:01.949Z,55.40
2018-08-03T21:27:30.444Z,54.60
2018-08-03T21:29:59.789Z,54.90
2018-08-03T21:32:28.520Z,54.40
2018-08-03T21:34:56.979Z,54.30
2018-08-03T21:37:25.523Z,54.60
2018-08-03T21:39:54.142Z,56.10
2018-08-03T21:42:22.628Z,57.50
2018-08-03T21:44:51.089Z,59.80
2018-08-03T21:47:19.536Z,60.00
2018-08-03T21:49:47.980Z,59.50
2018-08-03T21:52:16.383Z,59.00
2018-08-03T21:54:44.900Z,59.00
2018-08-03T21:57:13.567Z,58.80
2018-08-03T21:59:42.056Z,58.40
2018-08-03T22:02:10.733Z,58.90
2018-08-03T22:04:39.247Z,57.50
2018-08-03T22:07:07.823Z,57.60
2018-08-03T22:09:36.304Z,57.70
2018-08-03T22:12:05.015Z,57.30
2018-08-03T22:14:33.380Z,58.30
2018-08-03T22:17:01.895Z,58.60
2018-08-03T22:19:30.544Z,59.20
2018-08-03T22:21:59.003Z,59.60
2018-08-03T22:24:27.477Z,59.40
2018-08-03T22:26:55.948Z,60.50
2018-08-03T22:29:25.100Z,60.70
2018-08-03T22:31:53.615Z,61.10
2018-08-03T22:34:22.099Z,60.60
2018-08-03T22:36:50.661Z,60.60
2018-08-03T22:39:19.158Z,60.30
2018-08-03T22:41:48.216Z,62.50
2018-08-03T22:44:16.723Z,62.20
2018-08-03T22:46:45.213Z,59.70
2018-08-03T22:49:13.798Z,59.80
2018-08-03T22:51:42.876Z,60.20
2018-08-03T22:54:11.332Z,60.40
2018-08-03T22:56:39.828Z,60.50
2018-08-03T22:59:08.287Z,61.20
2018-08-03T23:01:36.741Z,61.00
2018-08-03T23:04:05.294Z,61.30
2018-08-03T23:06:33.749Z,61.90
2018-08-03T23:09:03.071Z,60.90
2018-08-03T23:11:31.567Z,61.40
2018-08-03T23:14:00.076Z,61.10
2018-08-03T23:16:28.455Z,62.00
2018-08-03T23:18:56.952Z,62.00
2018-08-03T23:21:25.436Z,62.10
2018-08-03T23:23:53.926Z,62.80
2018-08-03T23:26:22.439Z,62.90
2018-08-03T23:28:50.948Z,63.10
2018-08-03T23:31:19.411Z,63.30
2018-08-03T23:33:47.868Z,64.00
2018-08-03T23:36:16.364Z,64.90
2018-08-03T23:38:44.880Z,65.70
2018-08-03T23:41:13.967Z,65.60
2018-08-03T23:43:42.424Z,66.50
2018-08-03T23:46:10.925Z,66.30
2018-08-03T23:48:39.386Z,65.50
2018-08-03T23:51:07.871Z,66.70
2018-08-03T23:53:36.383Z,66.60
2018-08-03T23:56:04.928Z,68.10
2018-08-03T23:58:33.468Z,67.40
